Time;durP1;ratioP1;P1;durP2;ratioP2;P2;SDS_P1;SDS_P2;PMS_P1;PMS_P2;Temp;Humidity;BMP_temperature;BMP_pressure;BME280_temperature;BME280_humidity;BME280_pressure;Samples;Min_cycle;Max_cycle;Signal;HPM_P1;HPM_P2
2023/10/08 00:02:09;;;;;;;;;;;;;;;-145.06;0.00;60892.56;6003046;23;20322;-91
2023/10/08 00:04:58;;;;;;;;;;;;;;;-145.06;0.00;60892.56;6005026;23;19908;-93
2023/10/08 00:07:42;;;;;;;;;;;;;;;-145.06;0.00;60892.56;6004287;23;19908;-91
2023/10/08 00:10:26;;;;;;;;;;;;;;;20.08;0.00;60892.56;6005182;23;19908;-92
2023/10/08 00:13:09;;;;;;;;;;;;;;;-145.06;0.00;60892.56;6005406;23;20331;-91
2023/10/08 00:15:55;;;;;;;;;;;;;;;-145.06;0.00;60892.56;6003969;23;19915;-92
2023/10/08 00:18:34;;;;;;;;;;;;;;;-145.06;0.00;60892.56;6004846;23;19947;-92
2023/10/08 00:23:52;;;;;;;;;;;;;;;-145.06;0.00;60892.56;6015798;23;19912;-91
2023/10/08 00:26:32;;;;;;;;;;;;;;;-145.06;0.00;60892.56;6004224;23;19927;-93
2023/10/08 00:29:21;;;;;;;;;;;;;;;-145.06;0.00;60892.56;6004704;23;20211;-91
2023/10/08 00:32:11;;;;;;;;;;;;;;;-145.06;0.00;60892.56;6004312;23;19911;-91
2023/10/08 00:34:50;;;;;;;;;;;;;;;-145.06;0.00;60892.56;6004115;23;19908;-92
2023/10/08 00:37:29;;;;;;;;;;;;;;;-145.06;0.00;60892.56;6004141;23;19908;-91
2023/10/08 00:40:11;;;;;;;;;;;;;;;-145.06;0.00;60892.56;6004726;23;20223;-91
2023/10/08 00:42:56;;;;;;;;;;;;;;;-145.06;0.00;60892.56;6005152;23;19912;-90
2023/10/08 00:45:39;;;;;;;;;;;;;;;-145.06;0.00;60892.56;6003290;23;19912;-91
2023/10/08 00:48:21;;;;;;;;;;;;;;;-145.06;0.00;60892.56;6004797;23;19912;-91
2023/10/08 00:51:25;;;;;;;;;;;;;;;-145.06;0.00;60892.56;6004292;23;19908;-91
2023/10/08 00:54:10;;;;;;;;;;;;;;;-145.06;0.00;60892.56;6004577;23;19908;-92
2023/10/08 00:56:53;;;;;;;;;;;;;;;-145.06;0.00;60892.56;6004004;23;19908;-91
2023/10/08 00:59:37;;;;;;;;;;;;;;;-145.06;0.00;60892.56;6005163;23;19912;-91
2023/10/08 01:02:19;;;;;;;;;;;;;;;-145.06;0.00;60892.56;6003967;23;19920;-91
2023/10/08 01:05:00;;;;;;;;;;;;;;;-145.06;0.00;60892.56;6004482;23;19912;-91
2023/10/08 01:07:44;;;;;;;;;;;;;;;-145.06;0.00;60892.56;6005042;23;19908;-93
2023/10/08 01:10:24;;;;;;;;;;;;;;;-145.06;0.00;60892.56;6004325;23;20227;-92
2023/10/08 01:13:05;;;;;;;;;;;;;;;-145.06;0.00;60892.56;6004548;23;19908;-92
2023/10/08 01:15:45;;;;;;;;;;;;;;;-145.06;0.00;60892.56;6003627;23;19916;-92
2023/10/08 01:18:32;;;;;;;;;;;;;;;-145.06;0.00;60892.56;6004674;23;19951;-92
2023/10/08 01:21:19;;;;;;;;;;;;;;;-145.06;0.00;60892.56;6004305;23;19907;-91
2023/10/08 01:24:00;;;;;;;;;;;;;;;-145.06;0.00;60892.56;6003999;23;20505;-91
2023/10/08 01:26:42;;;;;;;;;;;;;;;-145.06;0.00;60892.56;6004123;23;19924;-91
2023/10/08 01:29:21;;;;;;;;;;;;;;;-145.06;0.00;60892.56;6004661;23;19908;-92
2023/10/08 01:32:01;;;;;;;;;;;;;;;-145.06;0.00;60892.56;6004732;23;19908;-92
2023/10/08 01:34:45;;;;;;;;;;;;;;;-145.06;0.00;60892.56;6004266;23;19912;-91
2023/10/08 01:37:23;;;;;;;;;;;;;;;-145.06;0.00;60892.56;6003859;23;19932;-92
2023/10/08 01:40:06;;;;;;;;;;;;;;;-145.06;0.00;60892.56;6003529;23;19908;-91
2023/10/08 01:42:48;;;;;;;;;;;;;;;-145.06;0.00;60892.56;6004703;23;19912;-92
2023/10/08 01:45:29;;;;;;;;;;;;;;;-145.06;0.00;60892.56;6004953;23;19908;-91
2023/10/08 01:48:11;;;;;;;;;;;;;;;-145.06;0.00;60892.56;6004356;23;19931;-91
2023/10/08 01:50:53;;;;;;;;;;;;;;;-145.06;0.00;60892.56;6003794;23;19912;-92
2023/10/08 01:53:32;;;;;;;;;;;;;;;-145.06;0.00;60892.56;6004640;23;20335;-91
2023/10/08 01:56:13;;;;;;;;;;;;;;;-145.06;0.00;60892.56;6013351;23;22383;-92
2023/10/08 01:58:52;;;;;;;;;;;;;;;-145.06;0.00;60892.56;6003297;23;19908;-92
2023/10/08 02:01:38;;;;;;;;;;;;;;;-145.06;0.00;60892.56;6003714;23;19912;-91
2023/10/08 02:04:17;;;;;;;;;;;;;;;-145.06;0.00;60892.56;6003380;23;20347;-91
2023/10/08 02:06:56;;;;;;;;;;;;;;;-145.06;0.00;60892.56;6002930;23;20224;-92
2023/10/08 02:09:35;;;;;;;;;;;;;;;-145.06;0.00;60892.56;6004000;23;19912;-92
2023/10/08 02:12:14;;;;;;;;;;;;;;;-145.06;0.00;60892.56;6003863;23;20134;-90
2023/10/08 02:14:53;;;;;;;;;;;;;;;-145.06;0.00;60892.56;6004510;23;19912;-91
2023/10/08 02:17:32;;;;;;;;;;;;;;;-145.06;0.00;60892.56;6003498;23;19908;-91
2023/10/08 02:20:16;;;;;;;;;;;;;;;-145.06;0.00;60892.56;6003584;23;19908;-91
2023/10/08 02:22:55;;;;;;;;;;;;;;;-145.06;0.00;60892.56;6003720;23;19916;-92
2023/10/08 02:25:39;;;;;;;;;;;;;;;-145.06;0.00;60892.56;6002966;23;20323;-92
2023/10/08 02:28:20;;;;;;;;;;;;;;;-145.06;0.00;60892.56;6003045;23;19931;-91
2023/10/08 02:30:59;;;;;;;;;;;;;;;-145.06;0.00;60892.56;6003090;23;19912;-92
2023/10/08 02:33:41;;;;;;;;;;;;;;;-145.06;0.00;60892.56;6003003;23;20219;-91
2023/10/08 02:36:20;;;;;;;;;;;;;;;-145.06;0.00;60892.56;6003593;23;19908;-91
2023/10/08 02:39:02;;;;;;;;;;;;;;;-145.06;0.00;60892.56;6003187;23;19912;-92
2023/10/08 02:41:41;;;;;;;;;;;;;;;-145.06;0.00;60892.56;6002385;23;19908;-92
2023/10/08 02:44:20;;;;;;;;;;;;;;;-145.06;0.00;60892.56;6003320;23;20311;-90
2023/10/08 02:47:02;;;;;;;;;;;;;;;-145.06;0.00;60892.56;6004970;23;19916;-92
2023/10/08 02:49:42;;;;;;;;;;;;;;;-145.06;0.00;60892.56;6005459;23;19908;-90
2023/10/08 02:52:21;;;;;;;;;;;;;;;-145.06;0.00;60892.56;6005047;23;19908;-91
2023/10/08 02:55:00;;;;;;;;;;;;;;;-145.06;0.00;60892.56;6005454;23;20291;-91
2023/10/08 02:57:43;;;;;;;;;;;;;;;-145.06;0.00;60892.56;6005703;23;20334;-92
2023/10/08 03:00:29;;;;;;;;;;;;;;;-145.06;0.00;60892.56;6006117;23;20326;-91
2023/10/08 03:03:18;;;;;;;;;;;;;;;-145.06;0.00;60892.56;6004545;23;19912;-92
2023/10/08 03:05:57;;;;;;;;;;;;;;;-145.06;0.00;60892.56;6006020;23;19912;-91
2023/10/08 03:08:53;;;;;;;;;;;;;;;-145.06;0.00;60892.56;6005998;23;19908;-93
2023/10/08 03:15:01;;;;;;;;;;;;;;;-145.06;0.00;60892.56;5990518;23;19916;-92
2023/10/08 03:17:51;;;;;;;;;;;;;;;-145.06;0.00;60892.56;6004537;23;19916;-91
2023/10/08 03:20:46;;;;;;;;;;;;;;;-145.06;0.00;60892.56;6006006;23;19995;-91
2023/10/08 03:23:25;;;;;;;;;;;;;;;-145.06;0.00;60892.56;6005364;23;19951;-91
2023/10/08 03:26:28;;;;;;;;;;;;;;;-145.06;0.00;60892.56;6005383;23;20217;-91
2023/10/08 03:29:09;;;;;;;;;;;;;;;-145.06;0.00;60892.56;6005973;23;19907;-90
2023/10/08 03:31:51;;;;;;;;;;;;;;;-145.06;0.00;60892.56;6005883;23;19908;-91
2023/10/08 03:34:34;;;;;;;;;;;;;;;-145.06;0.00;60892.56;6005498;23;19908;-92
2023/10/08 03:37:19;;;;;;;;;;;;;;;-145.06;0.00;60892.56;6005311;23;20334;-91
2023/10/08 03:40:07;;;;;;;;;;;;;;;-145.06;0.00;60892.56;6007001;23;19908;-91
2023/10/08 03:42:49;;;;;;;;;;;;;;;-145.06;0.00;60892.56;6005678;23;19916;-91
2023/10/08 03:48:26;;;;;;;;;;;;;;;-145.06;0.00;60892.56;6017113;23;19991;-90
2023/10/08 03:51:11;;;;;;;;;;;;;;;-145.06;0.00;60892.56;6005626;23;19927;-91
2023/10/08 03:56:51;;;;;;;;;;;;;;;18.59;0.00;60892.56;6015427;23;19911;-92
2023/10/08 03:59:31;;;;;;;;;;;;;;;-145.06;0.00;60892.56;6005993;23;19908;-92
2023/10/08 04:04:57;;;;;;;;;;;;;;;-145.06;0.00;60892.56;6016572;23;19908;-92
2023/10/08 04:07:39;;;;;;;;;;;;;;;-145.06;0.00;60892.56;6003804;23;19916;-92
2023/10/08 04:13:18;;;;;;;;;;;;;;;-145.06;0.00;60892.56;6013296;23;19908;-93
2023/10/08 04:15:58;;;;;;;;;;;;;;;-145.06;0.00;60892.56;6005624;23;19908;-91
2023/10/08 04:18:40;;;;;;;;;;;;;;;-145.06;0.00;60892.56;6004846;23;19912;-90
2023/10/08 04:21:20;;;;;;;;;;;;;;;-145.06;0.00;60892.56;6004067;23;19908;-91
2023/10/08 04:24:03;;;;;;;;;;;;;;;-145.06;0.00;60892.56;6004692;23;19987;-90
2023/10/08 04:26:43;;;;;;;;;;;;;;;-145.06;0.00;60892.56;6003981;23;19908;-91
2023/10/08 04:29:22;;;;;;;;;;;;;;;-145.06;0.00;60892.56;6005555;23;19908;-91
2023/10/08 04:32:07;;;;;;;;;;;;;;;-145.06;0.00;60892.56;6005003;23;19927;-91
2023/10/08 04:34:47;;;;;;;;;;;;;;;-145.06;0.00;60892.56;6005621;23;19912;-91
2023/10/08 04:37:32;;;;;;;;;;;;;;;-145.06;0.00;60892.56;6004973;23;19911;-91
2023/10/08 04:40:16;;;;;;;;;;;;;;;-145.06;0.00;60892.56;6004820;23;19908;-91
2023/10/08 04:42:55;;;;;;;;;;;;;;;-145.06;0.00;60892.56;6004472;23;19912;-91
2023/10/08 04:45:34;;;;;;;;;;;;;;;-145.06;0.00;60892.56;6004841;23;19912;-92
2023/10/08 04:48:20;;;;;;;;;;;;;;;-145.06;0.00;60892.56;6004082;23;19939;-91
2023/10/08 04:50:59;;;;;;;;;;;;;;;-145.06;0.00;60892.56;6004335;23;19908;-91
2023/10/08 04:53:40;;;;;;;;;;;;;;;-145.06;0.00;60892.56;6003712;23;19908;-91
2023/10/08 04:56:19;;;;;;;;;;;;;;;-145.06;0.00;60892.56;6005217;23;19908;-91
2023/10/08 04:58:58;;;;;;;;;;;;;;;-145.06;0.00;60892.56;6004464;23;19907;-92
2023/10/08 05:01:47;;;;;;;;;;;;;;;-145.06;0.00;60892.56;6004352;23;19979;-92
2023/10/08 05:13:01;;;;;;;;;;;;;;;-145.06;0.00;60892.56;6014640;23;19912;-91
2023/10/08 05:16:02;;;;;;;;;;;;;;;-145.06;0.00;60892.56;6004868;23;19916;-91
2023/10/08 05:21:51;;;;;;;;;;;;;;;18.28;0.00;60892.56;6014697;23;19908;-92
2023/10/08 05:24:38;;;;;;;;;;;;;;;18.23;0.00;60892.56;6004005;23;19911;-91
2023/10/08 05:27:37;;;;;;;;;;;;;;;18.21;0.00;60892.56;6003174;23;19912;-91
2023/10/08 05:30:28;;;;;;;;;;;;;;;18.20;0.00;60892.56;6004507;23;19986;-92
2023/10/08 05:33:23;;;;;;;;;;;;;;;18.18;0.00;60892.56;6003509;23;19912;-91
2023/10/08 05:36:09;;;;;;;;;;;;;;;18.17;0.00;60892.56;6004564;23;20219;-91
2023/10/08 05:38:49;;;;;;;;;;;;;;;-145.06;0.00;60892.56;6003300;23;20338;-90
2023/10/08 05:41:28;;;;;;;;;;;;;;;-145.06;0.00;60892.56;6003454;23;19908;-93
2023/10/08 05:47:28;;;;;;;;;;;;;;;-145.06;0.00;60892.56;6014943;23;19908;-91
2023/10/08 05:55:42;;;;;;;;;;;;;;;-145.06;0.00;60892.56;6014825;23;19916;-91
2023/10/08 06:01:25;;;;;;;;;;;;;;;-145.06;0.00;60892.56;6014855;23;19912;-91
2023/10/08 06:04:30;;;;;;;;;;;;;;;-145.06;0.00;60892.56;6004328;23;19915;-91
2023/10/08 06:07:20;;;;;;;;;;;;;;;-145.06;0.00;60892.56;6005657;23;19912;-92
2023/10/08 06:10:13;;;;;;;;;;;;;;;-145.06;0.00;60892.56;6004384;23;20287;-91
2023/10/08 06:13:01;;;;;;;;;;;;;;;-145.06;0.00;60892.56;6003988;23;19939;-92
2023/10/08 06:18:31;;;;;;;;;;;;;;;-145.06;0.00;60892.56;6014336;23;19947;-91
2023/10/08 06:21:11;;;;;;;;;;;;;;;-145.06;0.00;60892.56;6005839;23;19908;-92
2023/10/08 06:23:56;;;;;;;;;;;;;;;-145.06;0.00;60892.56;6006102;23;19911;-91
2023/10/08 06:26:48;;;;;;;;;;;;;;;-145.06;0.00;60892.56;6005843;23;19907;-93
2023/10/08 06:29:27;;;;;;;;;;;;;;;-145.06;0.00;60892.56;6007119;23;19912;-91
2023/10/08 06:32:07;;;;;;;;;;;;;;;-145.06;0.00;60892.56;6006333;23;19927;-92
2023/10/08 06:34:48;;;;;;;;;;;;;;;-145.06;0.00;60892.56;6006620;23;20320;-91
2023/10/08 06:37:27;;;;;;;;;;;;;;;-145.06;0.00;60892.56;6006260;23;19912;-92
2023/10/08 06:40:26;;;;;;;;;;;;;;;-145.06;0.00;60892.56;6006233;23;20327;-92
2023/10/08 06:43:14;;;;;;;;;;;;;;;-145.06;0.00;60892.56;6006826;23;19912;-92
2023/10/08 06:45:57;;;;;;;;;;;;;;;-145.06;0.00;60892.56;6006526;23;19908;-92
2023/10/08 06:48:44;;;;;;;;;;;;;;;-145.06;0.00;60892.56;6006012;23;19912;-92
2023/10/08 06:51:25;;;;;;;;;;;;;;;-145.06;0.00;60892.56;6006392;23;19912;-91
2023/10/08 06:54:04;;;;;;;;;;;;;;;-145.06;0.00;60892.56;6006765;23;19908;-91
2023/10/08 06:56:53;;;;;;;;;;;;;;;-145.06;0.00;60892.56;6004396;23;20198;-91
2023/10/08 06:59:31;;;;;;;;;;;;;;;-145.06;0.00;60892.56;6005837;23;19908;-92
2023/10/08 07:02:15;;;;;;;;;;;;;;;-145.06;0.00;60892.56;6005217;23;19912;-91
2023/10/08 07:04:54;;;;;;;;;;;;;;;-145.06;0.00;60892.56;6004949;23;19916;-91
2023/10/08 07:07:39;;;;;;;;;;;;;;;-145.06;0.00;60892.56;6003767;23;19908;-91
2023/10/08 07:10:19;;;;;;;;;;;;;;;-145.06;0.00;60892.56;6001175;23;19907;-90
2023/10/08 07:12:59;;;;;;;;;;;;;;;-145.06;0.00;60892.56;6005791;23;19908;-89
2023/10/08 07:15:40;;;;;;;;;;;;;;;-145.06;0.00;60892.56;6006738;23;19912;-91
2023/10/08 07:18:24;;;;;;;;;;;;;;;-145.06;0.00;60892.56;5999858;23;19912;-91
2023/10/08 07:21:11;;;;;;;;;;;;;;;-145.06;0.00;60892.56;6000723;23;19912;-92
2023/10/08 07:23:56;;;;;;;;;;;;;;;-145.06;0.00;60892.56;5998552;23;20394;-92
2023/10/08 07:26:39;;;;;;;;;;;;;;;-145.06;0.00;60892.56;6001110;23;19912;-89
2023/10/08 07:29:19;;;;;;;;;;;;;;;-145.06;0.00;60892.56;6000074;23;19908;-90
2023/10/08 07:32:09;;;;;;;;;;;;;;;-145.06;0.00;60892.56;5997987;23;19912;-88
2023/10/08 07:34:57;;;;;;;;;;;;;;;-145.06;0.00;60892.56;5995740;23;19911;-90
2023/10/08 07:37:36;;;;;;;;;;;;;;;-145.06;0.00;60892.56;5998227;23;19908;-93
2023/10/08 07:40:15;;;;;;;;;;;;;;;-145.06;0.00;60892.56;5996477;23;20362;-91
2023/10/08 07:42:54;;;;;;;;;;;;;;;-145.06;0.00;60892.56;5999132;23;19916;-92
2023/10/08 07:45:53;;;;;;;;;;;;;;;-145.06;0.00;60892.56;5992828;23;20527;-91
2023/10/08 07:48:35;;;;;;;;;;;;;;;-145.06;0.00;60892.56;5996348;23;19912;-90
2023/10/08 07:51:14;;;;;;;;;;;;;;;-145.06;0.00;60892.56;5997240;23;19951;-91
2023/10/08 07:53:55;;;;;;;;;;;;;;;-145.06;0.00;60892.56;5999109;23;20327;-90
2023/10/08 07:56:34;;;;;;;;;;;;;;;-145.06;0.00;60892.56;5999779;23;19912;-91
2023/10/08 07:59:16;;;;;;;;;;;;;;;-145.06;0.00;60892.56;6000410;23;19986;-91
2023/10/08 08:01:55;;;;;;;;;;;;;;;-145.06;0.00;60892.56;6001118;23;19908;-91
2023/10/08 08:04:34;;;;;;;;;;;;;;;-145.06;0.00;60892.56;6000265;23;19908;-92
2023/10/08 08:07:16;;;;;;;;;;;;;;;-145.06;0.00;60892.56;6000101;23;19908;-91
2023/10/08 08:10:03;;;;;;;;;;;;;;;-145.06;0.00;60892.56;6002837;23;19908;-92
2023/10/08 08:12:42;;;;;;;;;;;;;;;-145.06;0.00;60892.56;6002824;23;19908;-92
2023/10/08 08:15:22;;;;;;;;;;;;;;;-145.06;0.00;60892.56;6003593;23;19912;-92
2023/10/08 08:18:05;;;;;;;;;;;;;;;-145.06;0.00;60892.56;6004327;23;19908;-91
2023/10/08 08:20:44;;;;;;;;;;;;;;;-145.06;0.00;60892.56;6003899;23;19939;-93
2023/10/08 08:23:26;;;;;;;;;;;;;;;18.19;0.00;60892.56;6003378;23;20039;-92
2023/10/08 08:26:12;;;;;;;;;;;;;;;18.24;0.00;60892.56;6002932;23;19908;-91
2023/10/08 08:28:51;;;;;;;;;;;;;;;18.30;0.00;60892.56;6003137;23;20244;-90
2023/10/08 08:31:35;;;;;;;;;;;;;;;18.35;0.00;60892.56;6002999;23;19975;-92
2023/10/08 08:34:19;;;;;;;;;;;;;;;18.41;0.00;60892.56;6002808;23;19931;-92
2023/10/08 08:37:00;;;;;;;;;;;;;;;18.47;0.00;60892.56;6002874;23;19912;-92
2023/10/08 08:39:42;;;;;;;;;;;;;;;-145.06;0.00;60892.56;6002804;23;19908;-91
2023/10/08 08:42:22;;;;;;;;;;;;;;;-145.06;0.00;60892.56;6002098;23;19911;-91
2023/10/08 08:45:08;;;;;;;;;;;;;;;-145.06;0.00;60892.56;6003268;23;19908;-92
2023/10/08 08:47:47;;;;;;;;;;;;;;;-145.06;0.00;60892.56;6003436;23;19916;-91
2023/10/08 08:50:29;;;;;;;;;;;;;;;-145.06;0.00;60892.56;6001930;23;19907;-91
2023/10/08 08:53:09;;;;;;;;;;;;;;;-145.06;0.00;60892.56;6002776;23;19904;-92
2023/10/08 08:55:50;;;;;;;;;;;;;;;-145.06;0.00;60892.56;6003125;23;19911;-92
2023/10/08 08:58:29;;;;;;;;;;;;;;;-145.06;0.00;60892.56;6001382;23;19908;-91
2023/10/08 09:01:12;;;;;;;;;;;;;;;-145.06;0.00;60892.56;6003739;23;20343;-91
2023/10/08 09:03:52;;;;;;;;;;;;;;;-145.06;0.00;60892.56;6004585;23;19916;-92
2023/10/08 09:06:34;;;;;;;;;;;;;;;-145.06;0.00;60892.56;6003278;23;19939;-92
2023/10/08 09:09:22;;;;;;;;;;;;;;;-145.06;0.00;60892.56;6002948;23;19916;-92
2023/10/08 09:12:04;;;;;;;;;;;;;;;-145.06;0.00;60892.56;6002114;23;19912;-92
2023/10/08 09:14:44;;;;;;;;;;;;;;;-145.06;0.00;60892.56;6002587;23;20223;-91
2023/10/08 09:17:25;;;;;;;;;;;;;;;-145.06;0.00;60892.56;6003711;23;19908;-91
2023/10/08 09:20:06;;;;;;;;;;;;;;;19.32;0.00;60892.56;6002701;23;19912;-93
2023/10/08 09:22:47;;;;;;;;;;;;;;;-145.06;0.00;60892.56;6002337;23;20386;-92
2023/10/08 09:25:26;;;;;;;;;;;;;;;-145.06;0.00;60892.56;6002816;23;19908;-92
2023/10/08 09:28:07;;;;;;;;;;;;;;;-145.06;0.00;60892.56;6002953;23;19912;-93
2023/10/08 09:30:48;;;;;;;;;;;;;;;-145.06;0.00;60892.56;6002629;23;19907;-91
2023/10/08 09:33:28;;;;;;;;;;;;;;;-145.06;0.00;60892.56;6002994;23;20342;-91
2023/10/08 09:36:10;;;;;;;;;;;;;;;-145.06;0.00;60892.56;6002472;23;19912;-92
2023/10/08 09:38:50;;;;;;;;;;;;;;;-145.06;0.00;60892.56;6002357;23;19912;-92
2023/10/08 09:41:30;;;;;;;;;;;;;;;-145.06;0.00;60892.56;6002146;23;19908;-93
2023/10/08 09:44:10;;;;;;;;;;;;;;;-145.06;0.00;60892.56;6002373;23;19912;-91
2023/10/08 09:46:55;;;;;;;;;;;;;;;-145.06;0.00;60892.56;6001728;23;20255;-93
2023/10/08 09:49:56;;;;;;;;;;;;;;;-145.06;0.00;60892.56;6004481;23;20319;-91
2023/10/08 09:52:39;;;;;;;;;;;;;;;-145.06;0.00;60892.56;6002566;23;20220;-92
2023/10/08 09:55:18;;;;;;;;;;;;;;;-145.06;0.00;60892.56;6003249;23;20318;-91
2023/10/08 09:57:57;;;;;;;;;;;;;;;-145.06;0.00;60892.56;6002858;23;20117;-93
2023/10/08 10:00:38;;;;;;;;;;;;;;;-145.06;0.00;60892.56;6002222;23;20374;-91
2023/10/08 10:03:18;;;;;;;;;;;;;;;-145.06;0.00;60892.56;6004515;23;19912;-93
2023/10/08 10:06:00;;;;;;;;;;;;;;;-145.06;0.00;60892.56;6002501;23;19908;-91
2023/10/08 10:08:39;;;;;;;;;;;;;;;-145.06;0.00;60892.56;6007912;23;19978;-91
2023/10/08 10:11:18;;;;;;;;;;;;;;;-145.06;0.00;60892.56;6004588;23;20315;-91
2023/10/08 10:14:00;;;;;;;;;;;;;;;-145.06;0.00;60892.56;6005699;23;19952;-92
2023/10/08 10:16:41;;;;;;;;;;;;;;;-145.06;0.00;60892.56;6006143;23;20299;-92
2023/10/08 10:19:20;;;;;;;;;;;;;;;-145.06;0.00;60892.56;6004723;23;19911;-92
2023/10/08 10:22:00;;;;;;;;;;;;;;;-145.06;0.00;60892.56;6003044;23;19916;-92
2023/10/08 10:24:42;;;;;;;;;;;;;;;-145.06;0.00;60892.56;6003266;23;19983;-92
2023/10/08 10:27:22;;;;;;;;;;;;;;;-145.06;0.00;60892.56;6006163;23;19908;-92
2023/10/08 10:30:08;;;;;;;;;;;;;;;-145.06;0.00;60892.56;6003383;23;19907;-92
2023/10/08 10:32:47;;;;;;;;;;;;;;;-145.06;0.00;60892.56;6002216;23;19916;-92
2023/10/08 10:35:27;;;;;;;;;;;;;;;-145.06;0.00;60892.56;6002044;23;20211;-92
2023/10/08 10:38:06;;;;;;;;;;;;;;;-145.06;0.00;60892.56;6001856;23;19912;-92
2023/10/08 10:40:56;;;;;;;;;;;;;;;-145.06;0.00;60892.56;6002103;23;19947;-92
2023/10/08 10:43:39;;;;;;;;;;;;;;;-145.06;0.00;60892.56;6001784;23;19912;-92
2023/10/08 10:46:30;;;;;;;;;;;;;;;-145.06;0.00;60892.56;6002070;23;19908;-92
2023/10/08 10:49:21;;;;;;;;;;;;;;;-145.06;0.00;60892.56;6002347;23;19908;-92
2023/10/08 10:52:04;;;;;;;;;;;;;;;-145.06;0.00;60892.56;6002175;23;20146;-92
2023/10/08 10:54:58;;;;;;;;;;;;;;;-145.06;0.00;60892.56;6002506;23;20290;-92
2023/10/08 10:57:48;;;;;;;;;;;;;;;-145.06;0.00;60892.56;6001615;23;19912;-91
2023/10/08 11:03:17;;;;;;;;;;;;;;;-145.06;0.00;60892.56;6012428;23;19907;-94
2023/10/08 11:05:59;;;;;;;;;;;;;;;-145.06;0.00;60892.56;6002732;23;19927;-93
2023/10/08 11:09:01;;;;;;;;;;;;;;;-145.06;0.00;60892.56;6004935;23;19908;-93
2023/10/08 11:11:43;;;;;;;;;;;;;;;-145.06;0.00;60892.56;6007006;23;19908;-93
2023/10/08 11:14:22;;;;;;;;;;;;;;;-145.06;0.00;60892.56;6005097;23;19912;-92
2023/10/08 11:17:10;;;;;;;;;;;;;;;-145.06;0.00;60892.56;6005521;23;19908;-92
2023/10/08 11:19:53;;;;;;;;;;;;;;;-145.06;0.00;60892.56;6007453;23;19908;-93
2023/10/08 11:22:47;;;;;;;;;;;;;;;-145.06;0.00;60892.56;6005544;23;19912;-92
2023/10/08 11:25:37;;;;;;;;;;;;;;;-145.06;0.00;60892.56;6005694;23;20296;-90
2023/10/08 11:28:18;;;;;;;;;;;;;;;-145.06;0.00;60892.56;5998360;23;19932;-91
2023/10/08 11:30:59;;;;;;;;;;;;;;;-145.06;0.00;60892.56;5998013;23;19915;-90
2023/10/08 11:33:39;;;;;;;;;;;;;;;-145.06;0.00;60892.56;6006874;23;19952;-90
2023/10/08 11:36:27;;;;;;;;;;;;;;;-145.06;0.00;60892.56;5997374;23;19931;-89
2023/10/08 11:39:13;;;;;;;;;;;;;;;-145.06;0.00;60892.56;5998465;23;19912;-89
2023/10/08 11:42:06;;;;;;;;;;;;;;;-145.06;0.00;60892.56;5993403;23;19916;-89
2023/10/08 11:44:46;;;;;;;;;;;;;;;-145.06;0.00;60892.56;5993885;23;19908;-90
2023/10/08 11:47:31;;;;;;;;;;;;;;;23.09;0.00;60892.56;5998227;23;19908;-89
2023/10/08 11:50:10;;;;;;;;;;;;;;;-145.06;0.00;60892.56;6006641;23;19908;-89
2023/10/08 11:52:49;;;;;;;;;;;;;;;-145.06;0.00;60892.56;5993120;23;20239;-89
2023/10/08 11:55:36;;;;;;;;;;;;;;;-145.06;0.00;60892.56;5995907;23;19908;-91
2023/10/08 11:58:20;;;;;;;;;;;;;;;-145.06;0.00;60892.56;5995463;23;19912;-91
2023/10/08 12:01:03;;;;;;;;;;;;;;;-145.06;0.00;60892.56;5994382;23;19915;-91
2023/10/08 12:03:43;;;;;;;;;;;;;;;-145.06;0.00;60892.56;5993697;23;19912;-90
2023/10/08 12:06:24;;;;;;;;;;;;;;;-145.06;0.00;60892.56;5994985;23;19912;-91
2023/10/08 12:09:11;;;;;;;;;;;;;;;-145.06;0.00;60892.56;5995296;23;19912;-91
2023/10/08 12:11:52;;;;;;;;;;;;;;;-145.06;0.00;60892.56;5996105;23;19911;-91
2023/10/08 12:14:31;;;;;;;;;;;;;;;-145.06;0.00;60892.56;5996313;23;19916;-91
2023/10/08 12:17:11;;;;;;;;;;;;;;;-145.06;0.00;60892.56;5995587;23;19912;-90
2023/10/08 12:19:51;;;;;;;;;;;;;;;-145.06;0.00;60892.56;5996637;23;19908;-90
2023/10/08 12:22:30;;;;;;;;;;;;;;;-145.06;0.00;60892.56;6003994;23;19916;-89
2023/10/08 12:25:09;;;;;;;;;;;;;;;-145.06;0.00;60892.56;5996236;23;20196;-91
2023/10/08 12:27:49;;;;;;;;;;;;;;;-145.06;0.00;60892.56;5994684;23;20094;-90
2023/10/08 12:30:30;;;;;;;;;;;;;;;-145.06;0.00;60892.56;5996838;23;19912;-91
2023/10/08 12:33:12;;;;;;;;;;;;;;;-145.06;0.00;60892.56;5995804;23;20015;-91
2023/10/08 12:35:55;;;;;;;;;;;;;;;-145.06;0.00;60892.56;5995540;23;19912;-91
2023/10/08 12:38:34;;;;;;;;;;;;;;;-145.06;0.00;60892.56;5995888;23;19948;-91
2023/10/08 12:41:13;;;;;;;;;;;;;;;-145.06;0.00;60892.56;5996802;23;19908;-90
2023/10/08 12:43:53;;;;;;;;;;;;;;;-145.06;0.00;60892.56;6006672;23;19912;-91
2023/10/08 12:46:33;;;;;;;;;;;;;;;-145.06;0.00;60892.56;5998290;23;19908;-92
2023/10/08 12:49:12;;;;;;;;;;;;;;;-145.06;0.00;60892.56;5995919;23;19912;-90
2023/10/08 12:51:52;;;;;;;;;;;;;;;-145.06;0.00;60892.56;5994690;23;19912;-92
2023/10/08 12:54:44;;;;;;;;;;;;;;;-145.06;0.00;60892.56;6006365;23;20479;-91
2023/10/08 12:57:31;;;;;;;;;;;;;;;-145.06;0.00;60892.56;5994636;23;19912;-90
2023/10/08 13:00:10;;;;;;;;;;;;;;;-145.06;0.00;60892.56;5996416;23;19912;-91
2023/10/08 13:02:53;;;;;;;;;;;;;;;-145.06;0.00;60892.56;5994613;23;20232;-90
2023/10/08 13:05:33;;;;;;;;;;;;;;;-145.06;0.00;60892.56;5995558;23;19912;-91
2023/10/08 13:08:13;;;;;;;;;;;;;;;-145.06;0.00;60892.56;5995610;23;19908;-92
2023/10/08 13:10:52;;;;;;;;;;;;;;;-145.06;0.00;60892.56;6006688;23;19908;-91
2023/10/08 13:13:32;;;;;;;;;;;;;;;-145.06;0.00;60892.56;5995834;23;20342;-91
2023/10/08 13:16:11;;;;;;;;;;;;;;;-145.06;0.00;60892.56;5998035;23;19908;-90
2023/10/08 13:18:58;;;;;;;;;;;;;;;-145.06;0.00;60892.56;5996124;23;20575;-91
2023/10/08 13:21:37;;;;;;;;;;;;;;;-145.06;0.00;60892.56;5997652;23;19912;-90
2023/10/08 13:24:18;;;;;;;;;;;;;;;-145.06;0.00;60892.56;5997352;23;20331;-92
2023/10/08 13:26:58;;;;;;;;;;;;;;;-145.06;0.00;60892.56;5996335;23;19916;-90
2023/10/08 13:29:37;;;;;;;;;;;;;;;-145.06;0.00;60892.56;5995432;23;20403;-90
2023/10/08 13:32:17;;;;;;;;;;;;;;;-145.06;0.00;60892.56;5996946;23;19908;-90
2023/10/08 13:34:56;;;;;;;;;;;;;;;-145.06;0.00;60892.56;5995549;23;19911;-91
2023/10/08 13:37:35;;;;;;;;;;;;;;;-145.06;0.00;60892.56;5994645;23;19928;-91
2023/10/08 13:40:15;;;;;;;;;;;;;;;-145.06;0.00;60892.56;5996153;23;19990;-91
2023/10/08 13:42:58;;;;;;;;;;;;;;;-145.06;0.00;60892.56;5994900;23;19915;-91
2023/10/08 13:45:39;;;;;;;;;;;;;;;-145.06;0.00;60892.56;5996118;23;19912;-90
2023/10/08 13:48:18;;;;;;;;;;;;;;;-145.06;0.00;60892.56;5993915;23;19907;-91
2023/10/08 13:50:57;;;;;;;;;;;;;;;-145.06;0.00;60892.56;5996085;23;19979;-91
2023/10/08 13:53:36;;;;;;;;;;;;;;;-145.06;0.00;60892.56;5995495;23;19908;-91
2023/10/08 13:56:18;;;;;;;;;;;;;;;-145.06;0.00;60892.56;5996744;23;19912;-91
2023/10/08 13:59:12;;;;;;;;;;;;;;;-145.06;0.00;60892.56;5994450;23;19916;-90
2023/10/08 14:01:51;;;;;;;;;;;;;;;-145.06;0.00;60892.56;5995493;23;20236;-91
2023/10/08 14:04:39;;;;;;;;;;;;;;;-145.06;0.00;60892.56;5996145;23;19912;-91
2023/10/08 14:07:23;;;;;;;;;;;;;;;-145.06;0.00;60892.56;5994696;23;19912;-91
2023/10/08 14:10:08;;;;;;;;;;;;;;;-145.06;0.00;60892.56;5996566;23;19912;-90
2023/10/08 14:12:49;;;;;;;;;;;;;;;-145.06;0.00;60892.56;5993388;23;19912;-92
2023/10/08 14:15:32;;;;;;;;;;;;;;;-145.06;0.00;60892.56;5995983;23;19996;-90
2023/10/08 14:18:16;;;;;;;;;;;;;;;-145.06;0.00;60892.56;5995163;23;19912;-91
2023/10/08 14:20:55;;;;;;;;;;;;;;;-145.06;0.00;60892.56;5994743;23;19982;-91
2023/10/08 14:23:38;;;;;;;;;;;;;;;-145.06;0.00;60892.56;5992402;23;19916;-91
2023/10/08 14:26:21;;;;;;;;;;;;;;;-145.06;0.00;60892.56;5996102;23;19912;-90
2023/10/08 14:29:07;;;;;;;;;;;;;;;-145.06;0.00;60892.56;5996045;23;19908;-91
2023/10/08 14:31:48;;;;;;;;;;;;;;;-145.06;0.00;60892.56;5996632;23;19912;-91
2023/10/08 14:43:23;;;;;;;;;;;;;;;-145.06;0.00;60892.56;6007840;23;19916;-91
2023/10/08 14:46:09;;;;;;;;;;;;;;;-145.06;0.00;60892.56;6009179;23;19911;-92
2023/10/08 14:48:49;;;;;;;;;;;;;;;-145.06;0.00;60892.56;5996957;23;19916;-91
2023/10/08 14:51:29;;;;;;;;;;;;;;;-145.06;0.00;60892.56;5998066;23;19912;-92
2023/10/08 14:54:08;;;;;;;;;;;;;;;-145.06;0.00;60892.56;5997395;23;19931;-91